This is the latest recevied weather packets stored in our database for station/object KG4IFE-13. If no packets are shown the sender has not sent any weather packets the latest 10 day(s).
| Time | Temp. | Humidity | Pressure | Rain* | Wind** | Luminosity | Snow |
|---|---|---|---|---|---|---|---|
| 1777580598 | 20.56° C | 42% | 1010.9 hPa | - | - | - | - |
| 1777579696 | 20° C | 42% | 1010.9 hPa | - | - | - | - |
| 1777579396 | 20° C | 41% | 1010.8 hPa | - | - | - | - |
| 1777578792 | 20.56° C | 44% | 1010.8 hPa | - | - | - | - |
| 1777578492 | 20.56° C | 44% | 1010.8 hPa | - | - | - | - |
| 1777576406 | 20° C | 43% | 1010.6 hPa | - | - | - | - |
| 1777574879 | 20.56° C | 44% | 1010.6 hPa | - | - | - | - |
| 1777570667 | 19.44° C | 51% | 1010.9 hPa | - | - | - | - |
| 1777570364 | 19.44° C | 48% | 1011.1 hPa | - | - | - | - |
| 1777568561 | 20° C | 55% | 1011.2 hPa | - | - | - | - |
| 1777561636 | 16.11° C | 63% | 1012 hPa | - | - | - | - |
| 1777559530 | 15° C | 65% | 1012.1 hPa | - | - | - | - |
| 1777559227 | 15° C | 65% | 1012.1 hPa | - | - | - | - |
| 1777556819 | 14.44° C | 71% | 1012.1 hPa | - | - | - | - |
| 1777553809 | 12.78° C | 76% | 1011.9 hPa | - | - | - | - |
| 1777552605 | 12.78° C | 77% | 1012 hPa | - | - | - | - |
| 1777551100 | 12.78° C | 80% | 1011.9 hPa | - | - | - | - |
| 1777550801 | 12.78° C | 80% | 1011.9 hPa | - | - | - | - |
| 1777548692 | 11.67° C | 84% | 1010.6 hPa | - | - | - | - |
| 1777545704 | 12.22° C | 80% | 1009.5 hPa | - | - | - | - |
| 1777544779 | 12.22° C | 80% | 1009.8 hPa | - | - | - | - |
| 1777542376 | 12.78° C | 79% | 1008.8 hPa | - | - | - | - |
| 1777540284 | 12.78° C | 79% | 1009.2 hPa | - | - | - | - |
| 1777536692 | 12.22° C | 80% | 1009.6 hPa | - | - | - | - |
| 1777533040 | 12.78° C | 78% | 1009.8 hPa | - | - | - | - |
* Rain since midnight (hover to see other rain measurements)
** Current wind speed in m/s (hover to see current wind gust speed)